Time;durP1;ratioP1;P1;durP2;ratioP2;P2;SDS_P1;SDS_P2;PMS_P1;PMS_P2;Temp;Humidity;BMP_temperature;BMP_pressure;BME280_temperature;BME280_humidity;BME280_pressure;Samples;Min_cycle;Max_cycle;Signal;HPM_P1;HPM_P2
2022/01/14 00:01:49;;;;;;;;;;;6.10;99.90;;;;;;5071473;28;20116;-71
2022/01/14 00:04:15;;;;;;;17.30;9.20;;;6.20;99.90;;;;;;5073052;28;20138;-71
2022/01/14 00:06:41;;;;;;;24.50;9.63;;;6.20;99.90;;;;;;5072084;28;20682;-71
2022/01/14 00:09:12;;;;;;;18.25;9.25;;;6.20;99.90;;;;;;5071287;28;20043;-71
2022/01/14 00:11:41;;;;;;;23.00;9.77;;;6.20;99.90;;;;;;5050029;28;20392;-71
2022/01/14 00:14:19;;;;;;;18.00;9.07;;;6.20;99.90;;;;;;5071119;28;20040;-71
2022/01/14 00:16:47;;;;;;;15.55;8.85;;;6.20;99.90;;;;;;5074385;28;20036;-71
2022/01/14 00:19:12;;;;;;;18.70;8.98;;;6.20;99.90;;;;;;5066579;28;20082;-71
2022/01/14 00:21:41;;;;;;;16.15;9.25;;;6.20;99.90;;;;;;5070548;28;20134;-71
2022/01/14 00:24:26;;;;;;;16.88;8.60;;;6.20;99.90;;;;;;5069896;28;20052;-71
2022/01/14 00:32:32;;;;;;;22.17;8.98;;;6.20;99.90;;;;;;5052102;28;20080;-71
2022/01/14 00:34:58;;;;;;;18.48;9.20;;;6.20;99.90;;;;;;5053878;28;20147;-71
2022/01/14 00:37:24;;;;;;;17.10;8.77;;;6.20;99.90;;;;;;5080503;28;20130;-71
2022/01/14 00:39:49;;;;;;;15.75;9.30;;;6.10;99.90;;;;;;5060976;28;20055;-71
2022/01/14 00:42:15;;;;;;;22.25;9.70;;;6.20;99.90;;;;;;5068355;28;20040;-71
2022/01/14 00:44:41;;;;;;;15.32;8.95;;;6.20;99.90;;;;;;5066029;28;20072;-71
2022/01/14 00:47:07;;;;;;;20.00;9.63;;;6.20;99.90;;;;;;5071822;28;20480;-71
2022/01/14 00:49:33;;;;;;;20.13;10.30;;;6.10;99.90;;;;;;5067557;28;20133;-71
2022/01/14 00:51:59;;;;;;;20.48;10.25;;;6.20;99.90;;;;;;5044045;28;20435;-71
2022/01/14 00:54:26;;;;;;;16.65;8.63;;;6.10;99.90;;;;;;5053210;28;20036;-71
2022/01/14 00:57:14;;;;;;;20.13;9.32;;;6.10;99.90;;;;;;5071237;28;20048;-71
2022/01/14 00:59:40;;;;;;;18.80;9.00;;;6.10;99.90;;;;;;5072617;28;20106;-71
2022/01/14 01:02:06;;;;;;;16.77;9.13;;;6.00;99.90;;;;;;5073126;28;20053;-71
2022/01/14 01:04:38;;;;;;;19.90;9.30;;;6.00;99.90;;;;;;5064648;28;20052;-71
2022/01/14 01:07:06;;;;;;;16.85;8.55;;;6.00;99.90;;;;;;5083617;28;20040;-71
2022/01/14 01:09:32;;;;;;;16.27;9.68;;;6.00;99.90;;;;;;5070184;28;20040;-72
2022/01/14 01:17:12;;;;;;;15.05;8.85;;;5.80;99.90;;;;;;5069125;28;20048;-72
2022/01/14 01:19:39;;;;;;;23.50;9.45;;;5.80;99.90;;;;;;5069047;28;20111;-72
2022/01/14 01:22:05;;;;;;;21.35;9.18;;;5.80;99.90;;;;;;5065937;28;20387;-72
2022/01/14 01:24:30;;;;;;;17.13;8.68;;;5.80;99.90;;;;;;5075080;28;20048;-72
2022/01/14 01:26:57;;;;;;;17.58;8.32;;;5.90;99.90;;;;;;5068494;28;20117;-72
2022/01/14 01:31:48;;;;;;;16.63;8.35;;;5.80;99.90;;;;;;5067976;28;20072;-72
2022/01/14 01:34:23;;;;;;;17.80;9.40;;;5.80;99.90;;;;;;5049057;28;20107;-72
2022/01/14 01:36:51;;;;;;;22.17;10.00;;;5.80;99.90;;;;;;5062755;28;20143;-71
2022/01/14 01:39:20;;;;;;;18.77;10.07;;;5.90;99.90;;;;;;5067355;28;20037;-72
2022/01/14 01:41:51;;;;;;;19.85;10.32;;;6.00;99.90;;;;;;5067457;28;20139;-73
2022/01/14 01:44:18;;;;;;;24.45;11.52;;;6.00;99.90;;;;;;5061266;28;20045;-73
2022/01/14 01:46:47;;;;;;;20.88;10.15;;;6.00;99.90;;;;;;5046332;28;20394;-71
2022/01/14 01:49:15;;;;;;;20.15;10.00;;;6.00;99.90;;;;;;5062209;28;20056;-72
2022/01/14 01:51:43;;;;;;;17.83;9.15;;;6.00;99.90;;;;;;5066014;28;20131;-71
2022/01/14 01:54:09;;;;;;;15.13;9.20;;;6.00;99.90;;;;;;5056311;28;20048;-71
2022/01/14 01:56:35;;;;;;;19.20;9.38;;;6.00;99.90;;;;;;5055726;28;20391;-72
2022/01/14 01:59:01;;;;;;;19.80;10.50;;;6.00;99.90;;;;;;5062063;28;20037;-73
2022/01/14 02:01:26;;;;;;;16.25;9.73;;;6.00;99.90;;;;;;5049895;28;20500;-73
2022/01/14 02:03:54;;;;;;;18.65;10.60;;;6.00;99.90;;;;;;5081996;28;20419;-72
2022/01/14 02:06:21;;;;;;;19.55;10.38;;;6.10;99.90;;;;;;5060726;28;20076;-72
2022/01/14 02:08:48;;;;;;;21.20;10.45;;;6.10;99.90;;;;;;5081164;28;20059;-72
2022/01/14 02:11:14;;;;;;;22.90;11.43;;;6.10;99.90;;;;;;5065467;28;20055;-72
2022/01/14 02:13:40;;;;;;;;;;;6.10;99.90;;;;;;5062337;28;20442;-72
2022/01/14 02:18:59;;;;;;;22.02;11.27;;;6.10;99.90;;;;;;5075813;28;20128;-72
2022/01/14 02:24:21;;;;;;;22.85;10.82;;;6.20;99.90;;;;;;5054681;28;20444;-72
2022/01/14 02:26:53;;;;;;;22.98;11.13;;;6.20;99.90;;;;;;5044821;28;20043;-72
2022/01/14 02:29:20;;;;;;;23.17;11.25;;;6.20;99.90;;;;;;5053461;28;20154;-73
2022/01/14 02:31:46;;;;;;;22.80;10.43;;;6.20;99.90;;;;;;5059720;28;20460;-72
2022/01/14 02:34:14;;;;;;;22.75;11.82;;;6.30;99.90;;;;;;5051693;28;20051;-73
2022/01/14 02:36:41;;;;;;;20.58;10.70;;;6.30;99.90;;;;;;5043625;28;20041;-72
2022/01/14 02:39:09;;;;;;;22.02;10.57;;;6.30;99.90;;;;;;5069530;28;20040;-72
2022/01/14 02:41:35;;;;;;;20.10;10.48;;;6.30;99.90;;;;;;5033533;28;20049;-72
2022/01/14 02:44:05;;;;;;;;;;;6.30;99.90;;;;;;5091680;28;20514;-73
2022/01/14 02:46:38;;;;;;;19.05;10.55;;;6.30;99.90;;;;;;5068957;28;20023;-72
2022/01/14 02:49:04;;;;;;;20.70;11.23;;;6.30;99.90;;;;;;5069305;28;20400;-72
2022/01/14 02:51:30;;;;;;;;;;;6.30;99.90;;;;;;5069171;28;20048;-72
2022/01/14 02:53:59;;;;;;;20.17;10.98;;;6.30;99.90;;;;;;5053277;28;20326;-72
2022/01/14 02:56:30;;;;;;;23.83;11.60;;;6.30;99.90;;;;;;5068681;28;20537;-72
2022/01/14 02:58:57;;;;;;;20.48;11.18;;;6.30;99.90;;;;;;5069528;28;20051;-72
2022/01/14 03:01:25;;;;;;;20.38;11.63;;;6.30;99.90;;;;;;5063652;28;20044;-73
2022/01/14 03:03:56;;;;;;;19.50;11.15;;;6.30;99.90;;;;;;5038357;28;20072;-72
2022/01/14 03:06:22;;;;;;;19.70;9.98;;;6.40;99.90;;;;;;5068124;28;20066;-72
2022/01/14 03:08:48;;;;;;;20.88;11.05;;;6.30;99.90;;;;;;5063005;28;20045;-72
2022/01/14 03:11:29;;;;;;;27.08;11.45;;;6.30;99.90;;;;;;5058952;28;20041;-72
2022/01/14 03:13:55;;;;;;;19.55;10.10;;;6.40;99.90;;;;;;5069005;28;20037;-72
2022/01/14 03:16:21;;;;;;;19.33;9.60;;;6.40;99.90;;;;;;5035532;28;20036;-73
2022/01/14 03:18:51;;;;;;;19.67;10.05;;;6.40;99.90;;;;;;5088152;28;20410;-72
2022/01/14 03:21:25;;;;;;;21.20;11.02;;;6.30;99.90;;;;;;5059266;28;20071;-72
2022/01/14 03:24:02;;;;;;;23.15;11.27;;;6.40;99.90;;;;;;5036467;28;20052;-72
2022/01/14 03:26:28;;;;;;;24.92;12.02;;;6.40;99.90;;;;;;5056802;28;20487;-73
2022/01/14 03:28:54;;;;;;;21.90;12.10;;;6.40;99.90;;;;;;5067517;28;20041;-73
2022/01/14 03:31:19;;;;;;;25.58;12.32;;;6.50;99.90;;;;;;5075247;28;20123;-73
2022/01/14 03:33:45;;;;;;;23.20;12.20;;;6.50;99.90;;;;;;5061967;28;20068;-73
2022/01/14 03:36:11;;;;;;;21.67;11.75;;;6.50;99.90;;;;;;5051410;28;20091;-73
2022/01/14 03:38:37;;;;;;;20.48;11.68;;;6.40;99.90;;;;;;5060368;28;20045;-73
2022/01/14 03:41:04;;;;;;;16.50;10.63;;;6.40;99.90;;;;;;5066730;28;20075;-72
2022/01/14 03:43:31;;;;;;;18.88;12.23;;;6.40;99.90;;;;;;5068321;28;20851;-72
2022/01/14 03:45:57;;;;;;;24.42;12.07;;;6.50;99.90;;;;;;5071540;28;20181;-73
2022/01/14 03:48:23;;;;;;;18.83;12.02;;;6.50;99.90;;;;;;5036612;28;20119;-73
2022/01/14 03:50:49;;;;;;;21.58;11.85;;;6.50;99.90;;;;;;5074789;28;20051;-73
2022/01/14 03:53:15;;;;;;;19.45;10.95;;;6.50;99.90;;;;;;5072204;28;20439;-73
2022/01/14 03:55:43;;;;;;;19.48;11.73;;;6.50;99.90;;;;;;5073770;28;20123;-73
2022/01/14 03:58:09;;;;;;;23.38;11.48;;;6.50;99.90;;;;;;5054926;28;20041;-73
2022/01/14 04:00:36;;;;;;;19.92;11.05;;;6.50;99.90;;;;;;5055576;28;20120;-73
2022/01/14 04:03:04;;;;;;;19.52;11.30;;;6.50;99.90;;;;;;5046632;28;20040;-73
2022/01/14 04:05:29;;;;;;;19.77;11.23;;;6.50;99.90;;;;;;5070862;28;20048;-74
2022/01/14 04:07:55;;;;;;;14.48;10.23;;;6.50;99.90;;;;;;5064369;28;20036;-74
2022/01/14 04:10:22;;;;;;;17.10;9.38;;;6.50;99.90;;;;;;5066245;28;20044;-73
2022/01/14 04:13:11;;;;;;;13.65;9.63;;;6.40;99.90;;;;;;5072970;28;20499;-74
2022/01/14 04:15:37;;;;;;;24.80;10.68;;;6.40;99.90;;;;;;5088963;28;20547;-73
2022/01/14 04:18:07;;;;;;;19.95;11.20;;;6.40;99.90;;;;;;5070237;28;20116;-73
2022/01/14 04:20:35;;;;;;;19.38;10.30;;;6.40;99.90;;;;;;5064333;28;20040;-74
2022/01/14 04:23:01;;;;;;;18.45;10.25;;;6.30;99.90;;;;;;5047136;28;20045;-73
2022/01/14 04:25:27;;;;;;;21.42;11.35;;;6.30;99.90;;;;;;5076068;28;20131;-73
2022/01/14 04:27:53;;;;;;;18.58;10.25;;;6.20;99.90;;;;;;5034535;28;20200;-73
2022/01/14 04:30:19;;;;;;;20.75;10.93;;;6.20;99.90;;;;;;5073308;28;20396;-73
2022/01/14 04:32:45;;;;;;;21.98;11.55;;;6.10;99.90;;;;;;5071381;28;20143;-73
2022/01/14 04:35:11;;;;;;;22.45;11.43;;;6.00;99.90;;;;;;5055688;28;20059;-73
2022/01/14 04:37:38;;;;;;;22.70;11.32;;;6.00;99.90;;;;;;5069929;28;20032;-73
2022/01/14 04:40:04;;;;;;;25.20;11.48;;;6.00;99.90;;;;;;5054195;28;20110;-73
2022/01/14 04:42:31;;;;;;;18.50;10.52;;;6.00;99.90;;;;;;5072355;28;20048;-73
2022/01/14 04:44:57;;;;;;;19.77;11.27;;;6.10;99.90;;;;;;5039458;28;20476;-73
2022/01/14 04:47:32;;;;;;;16.85;9.70;;;6.10;99.90;;;;;;5071399;28;20052;-73
2022/01/14 04:49:59;;;;;;;22.15;11.38;;;6.00;99.90;;;;;;5067745;28;20052;-73
2022/01/14 04:52:30;;;;;;;20.70;11.13;;;6.00;99.90;;;;;;5040106;28;20037;-73
2022/01/14 04:54:56;;;;;;;22.38;11.45;;;6.00;99.90;;;;;;5069569;28;20198;-73
2022/01/14 04:57:22;;;;;;;20.80;11.48;;;6.10;99.90;;;;;;5072099;28;20538;-74
2022/01/14 04:59:49;;;;;;;24.13;12.60;;;6.00;99.90;;;;;;5071417;28;20079;-73
2022/01/14 05:02:15;;;;;;;18.30;11.52;;;6.00;99.90;;;;;;5067647;28;20048;-73
2022/01/14 05:04:42;;;;;;;20.02;11.88;;;6.00;99.90;;;;;;5061988;28;20761;-73
2022/01/14 05:07:12;;;;;;;15.27;10.18;;;6.10;99.90;;;;;;5063241;28;20048;-73
2022/01/14 05:09:43;;;;;;;18.80;11.40;;;6.00;99.90;;;;;;5055263;28;20117;-74
2022/01/14 05:12:10;;;;;;;24.27;11.68;;;6.00;99.90;;;;;;5060377;28;20056;-73
2022/01/14 05:14:37;;;;;;;26.25;12.90;;;6.00;99.90;;;;;;5092290;28;20071;-73
2022/01/14 05:17:03;;;;;;;21.67;11.50;;;6.00;99.90;;;;;;5071879;28;20150;-73
2022/01/14 05:19:28;;;;;;;21.45;12.25;;;6.00;99.90;;;;;;5070116;28;20047;-73
2022/01/14 05:21:54;;;;;;;22.80;11.68;;;6.00;99.90;;;;;;5066182;28;20044;-73
2022/01/14 05:24:20;;;;;;;25.80;13.25;;;6.00;99.90;;;;;;5053785;28;20434;-73
2022/01/14 05:26:46;;;;;;;23.85;13.27;;;6.10;99.90;;;;;;5076197;28;20102;-74
2022/01/14 05:29:11;;;;;;;21.13;12.73;;;6.10;99.90;;;;;;5081573;28;20066;-73
2022/01/14 05:31:52;;;;;;;21.95;11.48;;;6.10;99.90;;;;;;5071974;28;20376;-73
2022/01/14 05:34:18;;;;;;;23.65;12.73;;;6.10;99.90;;;;;;5045705;28;20049;-73
2022/01/14 05:36:44;;;;;;;18.23;11.95;;;6.10;99.90;;;;;;5042385;28;20492;-73
2022/01/14 05:39:11;;;;;;;26.05;13.25;;;6.20;99.90;;;;;;5067474;28;20072;-74
2022/01/14 05:41:37;;;;;;;21.83;12.57;;;6.10;99.90;;;;;;5067131;28;20083;-74
2022/01/14 05:44:04;;;;;;;;;;;6.10;99.90;;;;;;5061130;28;20114;-74
2022/01/14 05:46:30;;;;;;;21.37;12.70;;;6.10;99.90;;;;;;5066984;28;19966;-79
2022/01/14 05:48:56;;;;;;;21.73;11.80;;;6.10;99.90;;;;;;5061025;28;20284;-79
2022/01/14 05:51:21;;;;;;;25.52;13.48;;;6.10;99.90;;;;;;5078275;28;20128;-80
2022/01/14 05:53:47;;;;;;;23.13;12.43;;;6.20;99.90;;;;;;5061120;28;20036;-79
2022/01/14 05:56:13;;;;;;;16.75;11.45;;;6.20;99.90;;;;;;5080522;28;20464;-78
2022/01/14 05:58:38;;;;;;;21.73;11.98;;;6.20;99.90;;;;;;5075924;28;20127;-77
2022/01/14 06:01:06;;;;;;;24.38;12.48;;;6.20;99.90;;;;;;5064592;28;20254;-78
2022/01/14 06:03:31;;;;;;;23.20;12.68;;;6.20;99.90;;;;;;5052365;28;20503;-78
2022/01/14 06:05:57;;;;;;;19.38;12.32;;;6.20;99.90;;;;;;5055110;28;20047;-78
2022/01/14 06:08:23;;;;;;;19.60;11.70;;;6.30;99.90;;;;;;5071345;28;20115;-74
2022/01/14 06:10:48;;;;;;;22.85;12.10;;;6.30;99.90;;;;;;5068265;28;20040;-74
2022/01/14 06:13:14;;;;;;;18.83;12.38;;;6.30;99.90;;;;;;5074831;28;20047;-75
2022/01/14 06:15:40;;;;;;;27.17;13.60;;;6.30;99.90;;;;;;5038257;28;20048;-76
2022/01/14 06:18:05;;;;;;;20.25;11.23;;;6.30;99.90;;;;;;5088496;28;20047;-76
2022/01/14 06:20:31;;;;;;;22.95;12.02;;;6.30;99.90;;;;;;5072133;28;20058;-75
2022/01/14 06:22:57;;;;;;;21.05;12.07;;;6.30;99.90;;;;;;5071021;28;20033;-76
2022/01/14 06:25:22;;;;;;;24.80;11.93;;;6.30;99.90;;;;;;5063582;28;20122;-76
2022/01/14 06:27:49;;;;;;;21.42;12.57;;;6.30;99.90;;;;;;5057224;28;20040;-75
2022/01/14 06:30:14;;;;;;;18.15;11.55;;;6.30;99.90;;;;;;5067453;28;20505;-76
2022/01/14 06:32:41;;;;;;;20.80;11.00;;;6.30;99.90;;;;;;5068256;28;20077;-76
2022/01/14 06:35:13;;;;;;;27.50;11.82;;;6.30;99.90;;;;;;5070018;28;20045;-76
2022/01/14 06:37:40;;;;;;;22.05;11.00;;;6.30;99.90;;;;;;5069406;28;20055;-74
2022/01/14 06:40:07;;;;;;;23.20;11.80;;;6.30;99.90;;;;;;5068428;28;20135;-74
2022/01/14 06:42:33;;;;;;;18.45;12.05;;;6.30;99.90;;;;;;5078934;28;20044;-74
2022/01/14 06:44:59;;;;;;;24.08;12.15;;;6.30;99.90;;;;;;5069699;28;20510;-74
2022/01/14 06:47:25;;;;;;;21.95;12.70;;;6.30;99.90;;;;;;5068631;28;20037;-75
2022/01/14 06:49:51;;;;;;;19.67;10.68;;;6.30;99.90;;;;;;5081522;28;20092;-75
2022/01/14 06:52:17;;;;;;;19.60;11.07;;;6.30;99.90;;;;;;5071497;28;20565;-75
2022/01/14 06:54:43;;;;;;;18.58;10.55;;;6.30;99.90;;;;;;5068382;28;20499;-75
2022/01/14 06:57:09;;;;;;;20.20;10.95;;;6.30;99.90;;;;;;5070383;28;20053;-75
2022/01/14 06:59:34;;;;;;;24.33;11.10;;;6.30;99.90;;;;;;5046885;28;20041;-74
2022/01/14 07:02:01;;;;;;;22.25;11.93;;;6.30;99.90;;;;;;5051122;28;20082;-75
2022/01/14 07:04:26;;;;;;;21.02;11.45;;;6.30;99.90;;;;;;5050362;28;20217;-74
2022/01/14 07:06:52;;;;;;;18.05;9.98;;;6.30;99.90;;;;;;5066386;28;20162;-74
2022/01/14 07:09:18;;;;;;;20.65;10.27;;;6.30;99.90;;;;;;5074095;28;20036;-74
2022/01/14 07:11:47;;;;;;;18.80;10.23;;;6.30;99.90;;;;;;5067127;28;20048;-75
2022/01/14 07:14:13;;;;;;;16.63;9.05;;;6.30;99.90;;;;;;5052283;28;20041;-75
2022/01/14 07:16:39;;;;;;;21.90;9.38;;;6.30;99.90;;;;;;5076635;28;20059;-76
2022/01/14 07:19:05;;;;;;;19.23;8.80;;;6.30;99.90;;;;;;5061381;28;20044;-76
2022/01/14 07:21:34;;;;;;;20.05;8.82;;;6.30;99.90;;;;;;5059124;28;20124;-76
2022/01/14 07:24:04;;;;;;;19.55;8.90;;;6.30;99.90;;;;;;5043384;28;20108;-75
2022/01/14 07:26:30;;;;;;;22.15;9.40;;;6.40;99.90;;;;;;5086211;28;20044;-75
2022/01/14 07:28:55;;;;;;;13.88;8.07;;;6.40;99.90;;;;;;5073974;28;20098;-77
2022/01/14 07:31:21;;;;;;;19.70;9.13;;;6.40;99.90;;;;;;5057040;28;20441;-80
2022/01/14 07:33:47;;;;;;;13.75;7.97;;;6.40;99.90;;;;;;5057090;28;20036;-76
2022/01/14 07:36:12;;;;;;;18.95;8.18;;;6.40;99.90;;;;;;5073788;28;20043;-77
2022/01/14 07:38:38;;;;;;;25.23;8.70;;;6.30;99.90;;;;;;5069906;28;20064;-77
2022/01/14 07:41:04;;;;;;;17.98;8.18;;;6.40;99.90;;;;;;5052938;28;20052;-77
2022/01/14 07:43:29;;;;;;;20.30;8.10;;;6.30;99.90;;;;;;5071533;28;20072;-77
2022/01/14 07:45:55;;;;;;;15.52;7.80;;;6.30;99.90;;;;;;5072484;28;20036;-76
2022/01/14 07:48:22;;;;;;;15.40;7.75;;;6.40;99.90;;;;;;5056926;28;20094;-76
2022/01/14 07:50:48;;;;;;;;;;;6.40;99.90;;;;;;5073509;28;20083;-75
2022/01/14 07:53:14;;;;;;;19.02;7.25;;;6.40;99.90;;;;;;5070755;28;19948;-75
2022/01/14 07:55:40;;;;;;;14.90;7.15;;;6.40;99.90;;;;;;5046942;28;20099;-75
2022/01/14 07:58:06;;;;;;;16.50;8.38;;;6.40;99.90;;;;;;5106379;28;20174;-75
2022/01/14 08:00:35;;;;;;;14.07;7.10;;;6.40;99.90;;;;;;5066617;28;20051;-77
2022/01/14 08:03:01;;;;;;;12.80;6.88;;;6.40;99.90;;;;;;5073655;28;20480;-77
2022/01/14 08:05:27;;;;;;;18.73;8.10;;;6.40;99.90;;;;;;5078634;28;20044;-76
2022/01/14 08:07:56;;;;;;;19.75;7.95;;;6.40;99.90;;;;;;5071776;28;20119;-75
2022/01/14 08:10:22;;;;;;;13.68;7.10;;;6.40;99.90;;;;;;5059578;28;20041;-76
2022/01/14 08:12:48;;;;;;;20.73;8.88;;;6.50;99.90;;;;;;5053603;28;20103;-76
2022/01/14 08:15:14;;;;;;;17.85;7.75;;;6.40;99.90;;;;;;5067476;28;20044;-76
2022/01/14 08:17:40;;;;;;;15.60;7.65;;;6.50;99.90;;;;;;5040363;28;20124;-75
2022/01/14 08:20:06;;;;;;;22.83;7.70;;;6.50;99.90;;;;;;5081806;28;20036;-76
2022/01/14 08:22:33;;;;;;;14.35;6.07;;;6.50;99.90;;;;;;5083012;28;20040;-75
2022/01/14 08:24:59;;;;;;;16.60;6.35;;;6.50;99.90;;;;;;5056744;28;20067;-76
2022/01/14 08:27:28;;;;;;;17.38;6.35;;;6.50;99.90;;;;;;5069910;28;20472;-75
2022/01/14 08:29:54;;;;;;;12.98;5.45;;;6.50;99.90;;;;;;5071288;28;20045;-75
2022/01/14 08:32:21;;;;;;;16.90;5.80;;;6.50;99.90;;;;;;5066080;28;20398;-76
2022/01/14 08:34:48;;;;;;;13.93;5.55;;;6.50;99.90;;;;;;5073549;28;20134;-75
2022/01/14 08:37:14;;;;;;;17.15;5.70;;;6.60;99.90;;;;;;5074476;28;20483;-76
2022/01/14 08:39:39;;;;;;;12.77;5.07;;;6.60;99.90;;;;;;5072027;28;20054;-75
2022/01/14 08:42:08;;;;;;;11.63;4.78;;;6.60;99.90;;;;;;5051238;28;20044;-75
2022/01/14 08:44:36;;;;;;;12.07;4.80;;;6.60;99.90;;;;;;5077353;28;20032;-75
2022/01/14 08:47:04;;;;;;;13.95;5.05;;;6.60;99.90;;;;;;5091130;28;20072;-73
2022/01/14 08:49:30;;;;;;;14.40;5.70;;;6.60;99.90;;;;;;5076480;28;20090;-77
2022/01/14 08:51:56;;;;;;;10.93;5.05;;;6.70;99.90;;;;;;5083199;28;20395;-77
2022/01/14 08:54:22;;;;;;;9.95;4.38;;;6.70;99.90;;;;;;5041868;28;20112;-77
2022/01/14 08:56:47;;;;;;;15.80;4.72;;;6.80;99.90;;;;;;5064309;28;20063;-77
2022/01/14 08:59:16;;;;;;;16.83;5.10;;;6.80;99.90;;;;;;5072055;28;20040;-77
2022/01/14 09:01:42;;;;;;;16.23;4.90;;;6.80;99.90;;;;;;5075280;28;20063;-77
2022/01/14 09:04:09;;;;;;;12.45;4.50;;;6.90;99.90;;;;;;5071654;28;20039;-79
2022/01/14 09:06:34;;;;;;;14.52;4.60;;;6.90;99.90;;;;;;5081447;28;20045;-78
2022/01/14 09:09:00;;;;;;;11.00;3.95;;;6.90;99.90;;;;;;5060995;28;20072;-74
2022/01/14 09:11:26;;;;;;;12.10;4.70;;;6.90;99.90;;;;;;5067472;28;20047;-77
2022/01/14 09:13:52;;;;;;;13.10;4.22;;;7.00;99.90;;;;;;5063783;28;20826;-77
2022/01/14 09:16:20;;;;;;;11.27;3.80;;;7.00;99.90;;;;;;5073390;28;20214;-76
2022/01/14 09:18:47;;;;;;;6.65;3.03;;;7.00;99.90;;;;;;5058202;28;20464;-76
2022/01/14 09:21:14;;;;;;;9.40;3.60;;;7.00;99.90;;;;;;5064470;28;20591;-76
2022/01/14 09:23:39;;;;;;;12.32;3.72;;;7.00;99.90;;;;;;5060842;28;20047;-75
2022/01/14 09:26:05;;;;;;;12.05;3.92;;;7.10;99.90;;;;;;5066367;28;20052;-76
2022/01/14 09:28:34;;;;;;;9.45;3.50;;;7.10;99.90;;;;;;5089903;28;20102;-76
2022/01/14 09:31:00;;;;;;;13.18;3.80;;;7.10;99.90;;;;;;5072060;28;20102;-76
2022/01/14 09:33:27;;;;;;;12.70;3.50;;;7.20;99.90;;;;;;5054543;28;20107;-76
2022/01/14 09:35:53;;;;;;;9.90;3.13;;;7.20;99.90;;;;;;5071825;28;20404;-76
2022/01/14 09:38:18;;;;;;;13.43;3.55;;;7.20;99.90;;;;;;5103821;28;20044;-76
2022/01/14 09:40:48;;;;;;;9.50;3.38;;;7.20;99.90;;;;;;5072277;28;20040;-77
2022/01/14 09:43:15;;;;;;;8.55;3.10;;;7.20;99.90;;;;;;5073095;28;20048;-76
2022/01/14 09:45:41;;;;;;;12.27;3.42;;;7.30;99.90;;;;;;5068565;28;20126;-76
2022/01/14 09:48:07;;;;;;;13.52;3.38;;;7.30;99.90;;;;;;5085618;28;20085;-75
2022/01/14 09:50:33;;;;;;;10.23;3.35;;;7.30;99.90;;;;;;5053768;28;20033;-75
2022/01/14 09:52:59;;;;;;;10.93;3.15;;;7.30;99.90;;;;;;5070466;28;20048;-75
2022/01/14 09:55:25;;;;;;;10.27;3.50;;;7.30;99.90;;;;;;5066491;28;20119;-75
2022/01/14 09:57:54;;;;;;;13.02;3.40;;;7.30;99.90;;;;;;5084931;28;20119;-75
2022/01/14 10:00:21;;;;;;;11.75;2.65;;;7.40;99.90;;;;;;5055175;28;20333;-75
2022/01/14 10:02:49;;;;;;;13.55;3.38;;;7.30;99.90;;;;;;5061223;28;20036;-75
2022/01/14 10:05:39;;;;;;;9.27;2.63;;;7.40;99.90;;;;;;5054987;28;20044;-75
2022/01/14 10:08:19;;;;;;;11.82;2.78;;;7.40;99.90;;;;;;5046409;28;20052;-75
2022/01/14 10:10:47;;;;;;;11.27;3.08;;;7.40;99.90;;;;;;5065601;28;20052;-75
2022/01/14 10:13:24;;;;;;;8.75;2.38;;;7.40;99.90;;;;;;5078845;28;20071;-75
2022/01/14 10:16:00;;;;;;;11.57;2.70;;;7.40;99.90;;;;;;5052999;28;20042;-75
2022/01/14 10:18:26;;;;;;;10.40;2.77;;;7.40;99.90;;;;;;5099334;28;20040;-75
2022/01/14 10:20:57;;;;;;;15.30;2.80;;;7.40;99.90;;;;;;5069304;28;20658;-75
2022/01/14 10:23:43;;;;;;;12.68;2.95;;;7.40;99.90;;;;;;5069098;28;20040;-75
2022/01/14 10:26:10;;;;;;;10.70;3.00;;;7.40;99.90;;;;;;5073845;28;20411;-75
2022/01/14 10:28:36;;;;;;;13.40;2.67;;;7.50;99.90;;;;;;5061643;28;20078;-75
2022/01/14 10:31:02;;;;;;;;;;;7.40;99.90;;;;;;5072793;28;20032;-75
2022/01/14 10:33:29;;;;;;;11.13;2.58;;;7.40;99.90;;;;;;5051468;28;19924;-75
2022/01/14 10:35:55;;;;;;;10.63;3.00;;;7.40;99.90;;;;;;5070577;28;20044;-75
2022/01/14 10:38:26;;;;;;;10.30;2.67;;;7.40;99.90;;;;;;5070761;28;20044;-74
2022/01/14 10:40:59;;;;;;;14.05;3.15;;;7.40;99.90;;;;;;5048857;28;20444;-74
2022/01/14 10:43:41;;;;;;;12.43;3.00;;;7.40;99.90;;;;;;5074423;28;20052;-75
2022/01/14 10:46:08;;;;;;;13.27;3.25;;;7.40;99.90;;;;;;5052147;28;20111;-74
2022/01/14 10:48:39;;;;;;;12.77;3.28;;;7.50;99.90;;;;;;5071651;28;20197;-73
2022/01/14 10:51:14;;;;;;;9.85;2.60;;;7.40;99.90;;;;;;5065218;28;20114;-75
2022/01/14 10:53:43;;;;;;;13.20;3.25;;;7.40;99.90;;;;;;5064730;28;20066;-76
2022/01/14 10:56:17;;;;;;;11.05;2.40;;;7.50;99.90;;;;;;5068637;28;20383;-76
2022/01/14 10:58:47;;;;;;;8.93;2.47;;;7.50;99.90;;;;;;5057217;28;20039;-77
2022/01/14 11:01:18;;;;;;;9.95;2.50;;;7.40;99.90;;;;;;5063640;28;20039;-78
2022/01/14 11:03:52;;;;;;;8.77;2.60;;;7.50;99.90;;;;;;5070011;28;20052;-77
2022/01/14 11:06:20;;;;;;;13.57;2.97;;;7.50;99.90;;;;;;5097819;28;20045;-77
2022/01/14 11:08:48;;;;;;;13.32;3.20;;;7.50;99.90;;;;;;5087240;28;20120;-78
2022/01/14 11:11:14;;;;;;;13.57;3.22;;;7.50;99.90;;;;;;5064510;28;20053;-79
2022/01/14 11:13:40;;;;;;;11.02;3.30;;;7.50;99.90;;;;;;5063490;28;20115;-78
2022/01/14 11:16:06;;;;;;;10.45;2.40;;;7.50;99.90;;;;;;5066742;28;20049;-77
2022/01/14 11:18:32;;;;;;;12.88;2.90;;;7.50;99.90;;;;;;5048688;28;20132;-79
2022/01/14 11:23:42;;;;;;;11.45;3.13;;;7.60;99.90;;;;;;5070704;28;20060;-79
2022/01/14 11:26:15;;;;;;;11.48;3.17;;;7.50;99.90;;;;;;5065864;28;20037;-79
2022/01/14 11:28:42;;;;;;;8.23;2.78;;;7.50;99.90;;;;;;5048816;28;20089;-80
2022/01/14 11:31:28;;;;;;;15.98;3.42;;;7.60;99.90;;;;;;5065225;28;20037;-80
2022/01/14 11:33:56;;;;;;;9.40;2.97;;;7.60;99.90;;;;;;5072132;28;20456;-81
2022/01/14 11:36:22;;;;;;;11.90;3.08;;;7.60;99.90;;;;;;5064802;28;20422;-80
2022/01/14 11:38:49;;;;;;;17.30;4.47;;;7.60;99.90;;;;;;5062241;28;20060;-79
2022/01/14 11:41:16;;;;;;;;;;;7.60;99.90;;;;;;5068647;28;20052;-80
2022/01/14 11:43:49;;;;;;;18.73;3.45;;;7.60;99.90;;;;;;5062041;28;19955;-79
2022/01/14 11:46:30;;;;;;;14.32;3.50;;;7.60;99.90;;;;;;5046594;28;20041;-79
2022/01/14 11:48:56;;;;;;;17.67;3.67;;;7.60;99.90;;;;;;5080169;28;20052;-79
2022/01/14 11:51:22;;;;;;;11.27;3.13;;;7.60;99.90;;;;;;5064667;28;20938;-79
2022/01/14 11:54:04;;;;;;;13.38;3.33;;;7.60;99.90;;;;;;5070026;28;20048;-79
2022/01/14 11:56:32;;;;;;;15.48;3.22;;;7.60;99.90;;;;;;5056686;28;20123;-79
2022/01/14 11:59:17;;;;;;;10.40;3.15;;;7.60;99.90;;;;;;5071790;28;20150;-78
2022/01/14 12:01:44;;;;;;;12.50;3.85;;;7.60;99.90;;;;;;5055850;28;20484;-78
2022/01/14 12:04:10;;;;;;;11.35;3.63;;;7.60;99.90;;;;;;5065081;28;20056;-78
2022/01/14 12:06:54;;;;;;;11.15;3.42;;;7.60;99.90;;;;;;5061845;28;20571;-78
2022/01/14 12:09:22;;;;;;;15.68;3.47;;;7.60;99.90;;;;;;5068555;28;20059;-79
2022/01/14 12:12:20;;;;;;;13.32;3.33;;;7.60;99.90;;;;;;5065262;28;21496;-79
2022/01/14 12:14:55;;;;;;;12.98;3.53;;;7.70;99.90;;;;;;5079207;28;20044;-79
2022/01/14 12:17:35;;;;;;;9.32;3.00;;;7.70;99.90;;;;;;5068588;28;20115;-79
2022/01/14 12:20:16;;;;;;;14.73;3.47;;;7.70;99.90;;;;;;5055756;28;20059;-79
2022/01/14 12:23:02;;;;;;;13.38;3.13;;;7.70;99.90;;;;;;5050476;28;20471;-80
2022/01/14 12:25:40;;;;;;;15.20;3.58;;;7.70;99.90;;;;;;5051274;28;20048;-79
2022/01/14 12:28:22;;;;;;;13.25;3.55;;;7.70;99.90;;;;;;5103791;28;20036;-79
2022/01/14 12:31:02;;;;;;;14.93;3.38;;;7.70;99.90;;;;;;5062125;28;20058;-79
2022/01/14 12:33:41;;;;;;;14.40;3.33;;;7.70;99.90;;;;;;5061070;28;20112;-79
2022/01/14 12:36:16;;;;;;;10.18;3.00;;;7.70;99.90;;;;;;5070269;28;20032;-79
2022/01/14 12:38:43;;;;;;;14.25;3.88;;;7.70;99.90;;;;;;5067938;28;20098;-79
2022/01/14 12:41:26;;;;;;;13.68;3.25;;;7.70;99.90;;;;;;5072246;28;20395;-79
2022/01/14 12:43:57;;;;;;;10.77;3.20;;;7.70;99.90;;;;;;5071712;28;20424;-79
2022/01/14 12:46:53;;;;;;;16.17;3.60;;;7.70;99.90;;;;;;5098331;28;20117;-79
2022/01/14 12:49:32;;;;;;;13.65;3.40;;;7.70;99.90;;;;;;5071730;28;20044;-79
2022/01/14 12:52:09;;;;;;;18.17;4.22;;;7.70;99.90;;;;;;5068736;28;20539;-79
2022/01/14 12:54:41;;;;;;;14.70;3.47;;;7.70;99.90;;;;;;5101216;28;20452;-79
2022/01/14 12:57:07;;;;;;;13.93;3.88;;;7.70;99.90;;;;;;5070479;28;20036;-77
2022/01/14 12:59:43;;;;;;;12.55;3.72;;;7.70;99.90;;;;;;5061784;28;20039;-77
2022/01/14 13:02:24;;;;;;;13.82;3.17;;;7.60;99.90;;;;;;5065044;28;20095;-77
2022/01/14 13:05:26;;;;;;;8.65;3.35;;;7.60;99.90;;;;;;5064242;28;20392;-77
2022/01/14 13:07:51;;;;;;;12.90;3.40;;;7.60;99.90;;;;;;5051366;28;20056;-77
2022/01/14 13:10:18;;;;;;;12.60;3.47;;;7.60;99.90;;;;;;5069645;28;20526;-79
2022/01/14 13:12:46;;;;;;;14.63;3.92;;;7.60;99.90;;;;;;5067008;28;20087;-77
2022/01/14 13:15:19;;;;;;;16.70;3.22;;;7.60;99.90;;;;;;5053430;28;20043;-78